sensor_id;sensor_type;location;lat;lon;timestamp;P1;durP1;ratioP1;P2;durP2;ratioP2
7031;SDS011;3557;48.880;8.328;2022-09-23T00:01:01;1.73;;;1.60;;
7031;SDS011;3557;48.880;8.328;2022-09-23T00:03:31;2.00;;;1.80;;
7031;SDS011;3557;48.880;8.328;2022-09-23T00:06:02;1.90;;;1.70;;
7031;SDS011;3557;48.880;8.328;2022-09-23T00:08:30;1.70;;;1.50;;
7031;SDS011;3557;48.880;8.328;2022-09-23T00:11:03;2.50;;;1.70;;
7031;SDS011;3557;48.880;8.328;2022-09-23T00:13:32;2.10;;;1.60;;
7031;SDS011;3557;48.880;8.328;2022-09-23T00:16:06;1.93;;;1.70;;
7031;SDS011;3557;48.880;8.328;2022-09-23T00:18:34;4.13;;;1.77;;
7031;SDS011;3557;48.880;8.328;2022-09-23T00:21:02;3.20;;;1.50;;
7031;SDS011;3557;48.880;8.328;2022-09-23T00:23:30;1.33;;;1.23;;
7031;SDS011;3557;48.880;8.328;2022-09-23T00:25:58;1.97;;;1.50;;
7031;SDS011;3557;48.880;8.328;2022-09-23T00:28:29;1.77;;;1.53;;
7031;SDS011;3557;48.880;8.328;2022-09-23T00:31:00;1.83;;;1.50;;
7031;SDS011;3557;48.880;8.328;2022-09-23T00:33:28;2.67;;;1.60;;
7031;SDS011;3557;48.880;8.328;2022-09-23T00:35:57;1.50;;;1.40;;
7031;SDS011;3557;48.880;8.328;2022-09-23T00:38:24;1.57;;;1.47;;
7031;SDS011;3557;48.880;8.328;2022-09-23T00:40:51;1.40;;;1.30;;
7031;SDS011;3557;48.880;8.328;2022-09-23T00:43:19;1.70;;;1.47;;
7031;SDS011;3557;48.880;8.328;2022-09-23T00:45:47;1.50;;;1.40;;
7031;SDS011;3557;48.880;8.328;2022-09-23T00:48:16;1.80;;;1.70;;
7031;SDS011;3557;48.880;8.328;2022-09-23T00:50:46;1.93;;;1.73;;
7031;SDS011;3557;48.880;8.328;2022-09-23T00:53:18;1.90;;;1.60;;
7031;SDS011;3557;48.880;8.328;2022-09-23T00:55:49;1.97;;;1.60;;
7031;SDS011;3557;48.880;8.328;2022-09-23T00:58:20;2.20;;;1.50;;
7031;SDS011;3557;48.880;8.328;2022-09-23T01:00:52;1.77;;;1.60;;
7031;SDS011;3557;48.880;8.328;2022-09-23T01:03:19;3.50;;;1.60;;
7031;SDS011;3557;48.880;8.328;2022-09-23T01:05:47;1.70;;;1.60;;
7031;SDS011;3557;48.880;8.328;2022-09-23T01:08:14;2.43;;;1.83;;
7031;SDS011;3557;48.880;8.328;2022-09-23T01:10:42;1.70;;;1.60;;
7031;SDS011;3557;48.880;8.328;2022-09-23T01:13:18;1.53;;;1.40;;
7031;SDS011;3557;48.880;8.328;2022-09-23T01:15:55;2.90;;;1.43;;
7031;SDS011;3557;48.880;8.328;2022-09-23T01:18:32;1.47;;;1.37;;
7031;SDS011;3557;48.880;8.328;2022-09-23T01:21:09;2.13;;;1.57;;
7031;SDS011;3557;48.880;8.328;2022-09-23T01:23:55;1.70;;;1.60;;
7031;SDS011;3557;48.880;8.328;2022-09-23T01:26:50;2.07;;;1.50;;
7031;SDS011;3557;48.880;8.328;2022-09-23T01:29:39;2.00;;;1.60;;
7031;SDS011;3557;48.880;8.328;2022-09-23T01:32:36;1.57;;;1.40;;
7031;SDS011;3557;48.880;8.328;2022-09-23T01:35:17;1.60;;;1.50;;
7031;SDS011;3557;48.880;8.328;2022-09-23T01:37:54;1.60;;;1.50;;
7031;SDS011;3557;48.880;8.328;2022-09-23T01:40:36;1.70;;;1.60;;
7031;SDS011;3557;48.880;8.328;2022-09-23T01:43:14;1.60;;;1.50;;
7031;SDS011;3557;48.880;8.328;2022-09-23T01:45:49;2.67;;;1.60;;
7031;SDS011;3557;48.880;8.328;2022-09-23T01:48:22;1.70;;;1.60;;
7031;SDS011;3557;48.880;8.328;2022-09-23T01:50:57;2.00;;;1.50;;
7031;SDS011;3557;48.880;8.328;2022-09-23T01:53:33;1.60;;;1.50;;
7031;SDS011;3557;48.880;8.328;2022-09-23T01:56:08;1.57;;;1.47;;
7031;SDS011;3557;48.880;8.328;2022-09-23T01:58:41;1.70;;;1.60;;
7031;SDS011;3557;48.880;8.328;2022-09-23T02:01:15;1.73;;;1.57;;
7031;SDS011;3557;48.880;8.328;2022-09-23T02:03:50;3.67;;;1.57;;
7031;SDS011;3557;48.880;8.328;2022-09-23T02:06:24;1.60;;;1.50;;
7031;SDS011;3557;48.880;8.328;2022-09-23T02:08:58;1.57;;;1.47;;
7031;SDS011;3557;48.880;8.328;2022-09-23T02:11:28;1.70;;;1.60;;
7031;SDS011;3557;48.880;8.328;2022-09-23T02:14:01;3.80;;;1.50;;
7031;SDS011;3557;48.880;8.328;2022-09-23T02:16:34;1.60;;;1.43;;
7031;SDS011;3557;48.880;8.328;2022-09-23T02:19:07;1.93;;;1.60;;
7031;SDS011;3557;48.880;8.328;2022-09-23T02:21:39;1.57;;;1.47;;
7031;SDS011;3557;48.880;8.328;2022-09-23T02:24:11;1.70;;;1.60;;
7031;SDS011;3557;48.880;8.328;2022-09-23T02:26:44;1.90;;;1.60;;
7031;SDS011;3557;48.880;8.328;2022-09-23T02:29:17;2.27;;;1.63;;
7031;SDS011;3557;48.880;8.328;2022-09-23T02:31:52;1.70;;;1.40;;
7031;SDS011;3557;48.880;8.328;2022-09-23T02:34:25;1.80;;;1.70;;
7031;SDS011;3557;48.880;8.328;2022-09-23T02:37:05;1.60;;;1.50;;
7031;SDS011;3557;48.880;8.328;2022-09-23T02:39:38;1.73;;;1.50;;
7031;SDS011;3557;48.880;8.328;2022-09-23T02:42:17;3.67;;;1.70;;
7031;SDS011;3557;48.880;8.328;2022-09-23T02:44:50;2.47;;;1.70;;
7031;SDS011;3557;48.880;8.328;2022-09-23T02:47:17;2.33;;;1.60;;
7031;SDS011;3557;48.880;8.328;2022-09-23T02:49:50;2.23;;;1.60;;
7031;SDS011;3557;48.880;8.328;2022-09-23T02:52:17;3.10;;;1.80;;
7031;SDS011;3557;48.880;8.328;2022-09-23T02:54:44;3.13;;;1.53;;
7031;SDS011;3557;48.880;8.328;2022-09-23T02:57:12;1.67;;;1.57;;
7031;SDS011;3557;48.880;8.328;2022-09-23T02:59:39;1.80;;;1.70;;
7031;SDS011;3557;48.880;8.328;2022-09-23T03:02:14;1.70;;;1.60;;
7031;SDS011;3557;48.880;8.328;2022-09-23T03:05:17;2.57;;;1.60;;
7031;SDS011;3557;48.880;8.328;2022-09-23T03:07:51;2.60;;;1.80;;
7031;SDS011;3557;48.880;8.328;2022-09-23T03:10:39;2.23;;;1.80;;
7031;SDS011;3557;48.880;8.328;2022-09-23T03:13:18;4.23;;;1.80;;
7031;SDS011;3557;48.880;8.328;2022-09-23T03:15:56;2.07;;;1.83;;
7031;SDS011;3557;48.880;8.328;2022-09-23T03:18:31;1.83;;;1.60;;
7031;SDS011;3557;48.880;8.328;2022-09-23T03:21:06;6.57;;;1.90;;
7031;SDS011;3557;48.880;8.328;2022-09-23T03:23:36;1.90;;;1.67;;
7031;SDS011;3557;48.880;8.328;2022-09-23T03:26:07;2.10;;;1.60;;
7031;SDS011;3557;48.880;8.328;2022-09-23T03:28:37;1.60;;;1.50;;
7031;SDS011;3557;48.880;8.328;2022-09-23T03:31:07;1.73;;;1.50;;
7031;SDS011;3557;48.880;8.328;2022-09-23T03:33:36;1.70;;;1.60;;
7031;SDS011;3557;48.880;8.328;2022-09-23T03:36:09;1.60;;;1.50;;
7031;SDS011;3557;48.880;8.328;2022-09-23T03:38:58;2.07;;;1.80;;
7031;SDS011;3557;48.880;8.328;2022-09-23T03:41:31;2.40;;;1.90;;
7031;SDS011;3557;48.880;8.328;2022-09-23T03:44:03;2.03;;;1.77;;
7031;SDS011;3557;48.880;8.328;2022-09-23T03:46:33;1.80;;;1.70;;
7031;SDS011;3557;48.880;8.328;2022-09-23T03:49:03;1.70;;;1.60;;
7031;SDS011;3557;48.880;8.328;2022-09-23T03:51:36;4.13;;;1.70;;
7031;SDS011;3557;48.880;8.328;2022-09-23T03:54:03;2.30;;;1.80;;
7031;SDS011;3557;48.880;8.328;2022-09-23T03:56:31;2.00;;;1.80;;
7031;SDS011;3557;48.880;8.328;2022-09-23T03:58:58;2.03;;;1.80;;
7031;SDS011;3557;48.880;8.328;2022-09-23T04:01:25;2.23;;;1.77;;
7031;SDS011;3557;48.880;8.328;2022-09-23T04:03:52;2.50;;;1.70;;
7031;SDS011;3557;48.880;8.328;2022-09-23T04:06:19;1.90;;;1.80;;
7031;SDS011;3557;48.880;8.328;2022-09-23T04:08:48;1.97;;;1.87;;
7031;SDS011;3557;48.880;8.328;2022-09-23T04:11:15;2.00;;;1.80;;
7031;SDS011;3557;48.880;8.328;2022-09-23T04:13:42;1.83;;;1.70;;
7031;SDS011;3557;48.880;8.328;2022-09-23T04:16:09;1.80;;;1.70;;
7031;SDS011;3557;48.880;8.328;2022-09-23T04:18:37;2.63;;;2.00;;
7031;SDS011;3557;48.880;8.328;2022-09-23T04:21:04;2.83;;;1.60;;
7031;SDS011;3557;48.880;8.328;2022-09-23T04:23:31;1.90;;;1.67;;
7031;SDS011;3557;48.880;8.328;2022-09-23T04:25:59;2.57;;;1.90;;
7031;SDS011;3557;48.880;8.328;2022-09-23T04:28:26;2.80;;;2.00;;
7031;SDS011;3557;48.880;8.328;2022-09-23T04:30:53;2.73;;;1.97;;
7031;SDS011;3557;48.880;8.328;2022-09-23T04:33:21;2.70;;;2.10;;
7031;SDS011;3557;48.880;8.328;2022-09-23T04:35:49;2.47;;;2.27;;
7031;SDS011;3557;48.880;8.328;2022-09-23T04:38:18;1.83;;;1.73;;
7031;SDS011;3557;48.880;8.328;2022-09-23T04:40:46;2.33;;;2.13;;
7031;SDS011;3557;48.880;8.328;2022-09-23T04:43:15;2.10;;;1.90;;
7031;SDS011;3557;48.880;8.328;2022-09-23T04:45:42;2.03;;;1.83;;
7031;SDS011;3557;48.880;8.328;2022-09-23T04:48:09;4.53;;;1.90;;
7031;SDS011;3557;48.880;8.328;2022-09-23T04:50:38;2.37;;;2.17;;
7031;SDS011;3557;48.880;8.328;2022-09-23T04:53:05;2.30;;;2.10;;
7031;SDS011;3557;48.880;8.328;2022-09-23T04:55:32;2.20;;;2.00;;
7031;SDS011;3557;48.880;8.328;2022-09-23T04:58:00;2.97;;;2.00;;
7031;SDS011;3557;48.880;8.328;2022-09-23T05:00:28;6.30;;;2.23;;
7031;SDS011;3557;48.880;8.328;2022-09-23T05:02:55;2.30;;;2.10;;
7031;SDS011;3557;48.880;8.328;2022-09-23T05:05:23;2.23;;;2.03;;
7031;SDS011;3557;48.880;8.328;2022-09-23T05:07:50;3.43;;;1.87;;
7031;SDS011;3557;48.880;8.328;2022-09-23T05:10:17;2.27;;;2.07;;
7031;SDS011;3557;48.880;8.328;2022-09-23T05:12:44;4.57;;;2.10;;
7031;SDS011;3557;48.880;8.328;2022-09-23T05:15:12;2.10;;;1.90;;
7031;SDS011;3557;48.880;8.328;2022-09-23T05:17:41;3.70;;;3.10;;
7031;SDS011;3557;48.880;8.328;2022-09-23T05:20:09;2.80;;;2.40;;
7031;SDS011;3557;48.880;8.328;2022-09-23T05:22:37;3.73;;;2.00;;
7031;SDS011;3557;48.880;8.328;2022-09-23T05:25:04;2.57;;;2.03;;
7031;SDS011;3557;48.880;8.328;2022-09-23T05:27:31;2.13;;;1.87;;
7031;SDS011;3557;48.880;8.328;2022-09-23T05:29:58;1.73;;;1.63;;
7031;SDS011;3557;48.880;8.328;2022-09-23T05:32:26;3.40;;;2.10;;
7031;SDS011;3557;48.880;8.328;2022-09-23T05:34:54;3.67;;;1.87;;
7031;SDS011;3557;48.880;8.328;2022-09-23T05:37:22;1.97;;;1.77;;
7031;SDS011;3557;48.880;8.328;2022-09-23T05:39:49;2.40;;;2.20;;
7031;SDS011;3557;48.880;8.328;2022-09-23T05:42:16;1.93;;;1.83;;
7031;SDS011;3557;48.880;8.328;2022-09-23T05:44:45;2.10;;;1.93;;
7031;SDS011;3557;48.880;8.328;2022-09-23T05:47:12;2.40;;;2.00;;
7031;SDS011;3557;48.880;8.328;2022-09-23T05:49:39;3.50;;;2.00;;
7031;SDS011;3557;48.880;8.328;2022-09-23T05:52:08;5.97;;;2.27;;
7031;SDS011;3557;48.880;8.328;2022-09-23T05:54:35;2.07;;;1.93;;
7031;SDS011;3557;48.880;8.328;2022-09-23T05:57:02;2.00;;;1.83;;
7031;SDS011;3557;48.880;8.328;2022-09-23T05:59:30;4.30;;;2.60;;
7031;SDS011;3557;48.880;8.328;2022-09-23T06:01:57;4.90;;;2.47;;
7031;SDS011;3557;48.880;8.328;2022-09-23T06:04:25;2.30;;;2.10;;
7031;SDS011;3557;48.880;8.328;2022-09-23T06:06:52;3.00;;;2.70;;
7031;SDS011;3557;48.880;8.328;2022-09-23T06:09:20;2.97;;;2.50;;
7031;SDS011;3557;48.880;8.328;2022-09-23T06:11:47;3.80;;;2.60;;
7031;SDS011;3557;48.880;8.328;2022-09-23T06:14:15;5.37;;;2.30;;
7031;SDS011;3557;48.880;8.328;2022-09-23T06:16:42;2.20;;;1.93;;
7031;SDS011;3557;48.880;8.328;2022-09-23T06:19:09;4.73;;;2.20;;
7031;SDS011;3557;48.880;8.328;2022-09-23T06:21:37;4.13;;;2.50;;
7031;SDS011;3557;48.880;8.328;2022-09-23T06:24:05;2.87;;;2.33;;
7031;SDS011;3557;48.880;8.328;2022-09-23T06:26:34;3.55;;;2.70;;
7031;SDS011;3557;48.880;8.328;2022-09-23T06:29:03;3.85;;;3.13;;
7031;SDS011;3557;48.880;8.328;2022-09-23T06:31:35;4.88;;;3.40;;
7031;SDS011;3557;48.880;8.328;2022-09-23T06:34:03;6.93;;;4.30;;
7031;SDS011;3557;48.880;8.328;2022-09-23T06:36:30;4.93;;;3.83;;
7031;SDS011;3557;48.880;8.328;2022-09-23T06:38:57;5.30;;;4.05;;
7031;SDS011;3557;48.880;8.328;2022-09-23T06:41:24;5.13;;;3.60;;
7031;SDS011;3557;48.880;8.328;2022-09-23T06:43:57;3.40;;;3.10;;
7031;SDS011;3557;48.880;8.328;2022-09-23T06:46:24;3.85;;;3.00;;
7031;SDS011;3557;48.880;8.328;2022-09-23T06:48:52;4.22;;;3.13;;
7031;SDS011;3557;48.880;8.328;2022-09-23T06:51:19;4.10;;;3.42;;
7031;SDS011;3557;48.880;8.328;2022-09-23T06:53:46;3.95;;;2.80;;
7031;SDS011;3557;48.880;8.328;2022-09-23T06:56:14;2.60;;;2.40;;
7031;SDS011;3557;48.880;8.328;2022-09-23T06:58:44;2.50;;;2.30;;
7031;SDS011;3557;48.880;8.328;2022-09-23T07:01:12;6.07;;;2.40;;
7031;SDS011;3557;48.880;8.328;2022-09-23T07:03:41;4.18;;;2.60;;
7031;SDS011;3557;48.880;8.328;2022-09-23T07:06:09;2.80;;;2.40;;
7031;SDS011;3557;48.880;8.328;2022-09-23T07:08:37;2.22;;;2.00;;
7031;SDS011;3557;48.880;8.328;2022-09-23T07:11:08;2.75;;;2.25;;
7031;SDS011;3557;48.880;8.328;2022-09-23T07:13:36;3.30;;;2.35;;
7031;SDS011;3557;48.880;8.328;2022-09-23T07:16:04;4.43;;;2.40;;
7031;SDS011;3557;48.880;8.328;2022-09-23T07:18:33;4.30;;;2.58;;
7031;SDS011;3557;48.880;8.328;2022-09-23T07:21:03;4.30;;;2.70;;
7031;SDS011;3557;48.880;8.328;2022-09-23T07:23:32;3.55;;;2.60;;
7031;SDS011;3557;48.880;8.328;2022-09-23T07:26:01;3.88;;;2.63;;
7031;SDS011;3557;48.880;8.328;2022-09-23T07:28:29;2.58;;;2.38;;
7031;SDS011;3557;48.880;8.328;2022-09-23T07:30:56;3.70;;;2.63;;
7031;SDS011;3557;48.880;8.328;2022-09-23T07:33:28;3.17;;;2.65;;
7031;SDS011;3557;48.880;8.328;2022-09-23T07:35:57;4.05;;;2.50;;
7031;SDS011;3557;48.880;8.328;2022-09-23T07:38:24;4.32;;;2.42;;
7031;SDS011;3557;48.880;8.328;2022-09-23T07:40:58;4.00;;;2.35;;
7031;SDS011;3557;48.880;8.328;2022-09-23T07:43:27;2.40;;;2.20;;
7031;SDS011;3557;48.880;8.328;2022-09-23T07:45:56;6.28;;;2.38;;
7031;SDS011;3557;48.880;8.328;2022-09-23T07:48:26;4.07;;;2.17;;
7031;SDS011;3557;48.880;8.328;2022-09-23T07:50:53;2.38;;;1.85;;
7031;SDS011;3557;48.880;8.328;2022-09-23T07:53:22;2.20;;;2.00;;
7031;SDS011;3557;48.880;8.328;2022-09-23T07:55:52;2.85;;;2.10;;
7031;SDS011;3557;48.880;8.328;2022-09-23T07:58:21;2.95;;;1.83;;
7031;SDS011;3557;48.880;8.328;2022-09-23T08:00:49;3.35;;;2.10;;
7031;SDS011;3557;48.880;8.328;2022-09-23T08:03:17;2.30;;;2.10;;
7031;SDS011;3557;48.880;8.328;2022-09-23T08:05:44;2.70;;;2.28;;
7031;SDS011;3557;48.880;8.328;2022-09-23T08:08:12;2.67;;;2.00;;
7031;SDS011;3557;48.880;8.328;2022-09-23T08:10:40;2.17;;;1.95;;
7031;SDS011;3557;48.880;8.328;2022-09-23T08:13:07;2.45;;;2.00;;
7031;SDS011;3557;48.880;8.328;2022-09-23T08:15:35;2.50;;;2.10;;
7031;SDS011;3557;48.880;8.328;2022-09-23T08:18:03;2.08;;;1.88;;
7031;SDS011;3557;48.880;8.328;2022-09-23T08:20:30;3.95;;;2.03;;
7031;SDS011;3557;48.880;8.328;2022-09-23T08:23:09;2.15;;;1.80;;
7031;SDS011;3557;48.880;8.328;2022-09-23T08:25:39;2.10;;;1.90;;
7031;SDS011;3557;48.880;8.328;2022-09-23T08:28:09;2.47;;;2.22;;
7031;SDS011;3557;48.880;8.328;2022-09-23T08:30:37;3.85;;;2.30;;
7031;SDS011;3557;48.880;8.328;2022-09-23T08:33:05;2.20;;;2.00;;
7031;SDS011;3557;48.880;8.328;2022-09-23T08:35:32;3.65;;;2.40;;
7031;SDS011;3557;48.880;8.328;2022-09-23T08:37:59;3.13;;;2.20;;
7031;SDS011;3557;48.880;8.328;2022-09-23T08:40:26;2.25;;;2.03;;
7031;SDS011;3557;48.880;8.328;2022-09-23T08:42:54;2.58;;;1.90;;
7031;SDS011;3557;48.880;8.328;2022-09-23T08:45:22;3.60;;;2.33;;
7031;SDS011;3557;48.880;8.328;2022-09-23T08:47:51;2.97;;;2.30;;
7031;SDS011;3557;48.880;8.328;2022-09-23T08:50:22;3.30;;;2.40;;
7031;SDS011;3557;48.880;8.328;2022-09-23T08:52:55;3.17;;;2.30;;
7031;SDS011;3557;48.880;8.328;2022-09-23T08:55:26;4.00;;;2.35;;
7031;SDS011;3557;48.880;8.328;2022-09-23T08:58:07;2.35;;;2.15;;
7031;SDS011;3557;48.880;8.328;2022-09-23T09:00:55;4.22;;;2.20;;
7031;SDS011;3557;48.880;8.328;2022-09-23T09:03:35;2.50;;;2.03;;
7031;SDS011;3557;48.880;8.328;2022-09-23T09:06:10;3.38;;;2.25;;
7031;SDS011;3557;48.880;8.328;2022-09-23T09:08:43;2.72;;;2.25;;
7031;SDS011;3557;48.880;8.328;2022-09-23T09:11:18;3.25;;;2.58;;
7031;SDS011;3557;48.880;8.328;2022-09-23T09:13:50;3.53;;;2.55;;
7031;SDS011;3557;48.880;8.328;2022-09-23T09:16:28;3.22;;;2.65;;
7031;SDS011;3557;48.880;8.328;2022-09-23T09:19:17;3.20;;;2.80;;
7031;SDS011;3557;48.880;8.328;2022-09-23T09:21:47;2.90;;;2.13;;
7031;SDS011;3557;48.880;8.328;2022-09-23T09:24:20;2.67;;;2.42;;
7031;SDS011;3557;48.880;8.328;2022-09-23T09:26:55;4.47;;;2.65;;
7031;SDS011;3557;48.880;8.328;2022-09-23T09:29:24;3.15;;;2.50;;
7031;SDS011;3557;48.880;8.328;2022-09-23T09:31:57;5.25;;;2.75;;
7031;SDS011;3557;48.880;8.328;2022-09-23T09:34:26;4.50;;;2.85;;
7031;SDS011;3557;48.880;8.328;2022-09-23T09:36:58;3.80;;;2.60;;
7031;SDS011;3557;48.880;8.328;2022-09-23T09:39:30;3.20;;;2.67;;
7031;SDS011;3557;48.880;8.328;2022-09-23T09:41:58;3.10;;;2.70;;
7031;SDS011;3557;48.880;8.328;2022-09-23T09:44:27;5.35;;;2.70;;
7031;SDS011;3557;48.880;8.328;2022-09-23T09:47:06;7.25;;;2.88;;
7031;SDS011;3557;48.880;8.328;2022-09-23T09:49:44;4.05;;;2.50;;
7031;SDS011;3557;48.880;8.328;2022-09-23T09:52:19;6.00;;;2.42;;
7031;SDS011;3557;48.880;8.328;2022-09-23T09:54:50;3.75;;;2.40;;
7031;SDS011;3557;48.880;8.328;2022-09-23T09:57:28;4.05;;;2.25;;
7031;SDS011;3557;48.880;8.328;2022-09-23T10:00:15;3.20;;;2.42;;
7031;SDS011;3557;48.880;8.328;2022-09-23T10:03:02;3.30;;;2.70;;
7031;SDS011;3557;48.880;8.328;2022-09-23T10:05:46;3.30;;;2.63;;
7031;SDS011;3557;48.880;8.328;2022-09-23T10:08:19;3.55;;;2.55;;
7031;SDS011;3557;48.880;8.328;2022-09-23T10:10:51;4.15;;;2.45;;
7031;SDS011;3557;48.880;8.328;2022-09-23T10:13:19;8.23;;;2.67;;
7031;SDS011;3557;48.880;8.328;2022-09-23T10:15:49;2.95;;;2.65;;
7031;SDS011;3557;48.880;8.328;2022-09-23T10:18:19;2.60;;;2.13;;
7031;SDS011;3557;48.880;8.328;2022-09-23T10:20:58;2.80;;;2.58;;
7031;SDS011;3557;48.880;8.328;2022-09-23T10:23:28;3.75;;;2.70;;
7031;SDS011;3557;48.880;8.328;2022-09-23T10:25:58;2.70;;;2.13;;
7031;SDS011;3557;48.880;8.328;2022-09-23T10:31:14;3.10;;;2.20;;
7031;SDS011;3557;48.880;8.328;2022-09-23T10:33:50;2.83;;;2.28;;
7031;SDS011;3557;48.880;8.328;2022-09-23T10:36:19;4.10;;;2.17;;
7031;SDS011;3557;48.880;8.328;2022-09-23T10:38:47;3.22;;;2.00;;
7031;SDS011;3557;48.880;8.328;2022-09-23T10:41:20;2.70;;;2.30;;
7031;SDS011;3557;48.880;8.328;2022-09-23T10:44:33;3.08;;;2.28;;
7031;SDS011;3557;48.880;8.328;2022-09-23T10:47:27;2.97;;;2.20;;
7031;SDS011;3557;48.880;8.328;2022-09-23T10:50:05;2.90;;;2.10;;
7031;SDS011;3557;48.880;8.328;2022-09-23T10:52:44;5.70;;;2.00;;
7031;SDS011;3557;48.880;8.328;2022-09-23T10:55:36;3.08;;;2.10;;
7031;SDS011;3557;48.880;8.328;2022-09-23T10:58:21;2.50;;;2.30;;
7031;SDS011;3557;48.880;8.328;2022-09-23T11:01:04;2.30;;;2.10;;
7031;SDS011;3557;48.880;8.328;2022-09-23T11:07:09;2.97;;;2.42;;
7031;SDS011;3557;48.880;8.328;2022-09-23T11:09:50;2.63;;;2.40;;
7031;SDS011;3557;48.880;8.328;2022-09-23T11:12:39;4.65;;;2.38;;
7031;SDS011;3557;48.880;8.328;2022-09-23T11:15:22;2.83;;;2.33;;
7031;SDS011;3557;48.880;8.328;2022-09-23T11:18:05;3.88;;;2.42;;
7031;SDS011;3557;48.880;8.328;2022-09-23T11:20:59;3.75;;;2.50;;
7031;SDS011;3557;48.880;8.328;2022-09-23T11:23:45;3.75;;;2.20;;
7031;SDS011;3557;48.880;8.328;2022-09-23T11:26:28;5.13;;;2.70;;
7031;SDS011;3557;48.880;8.328;2022-09-23T11:29:09;3.97;;;2.53;;
7031;SDS011;3557;48.880;8.328;2022-09-23T11:32:05;5.47;;;2.80;;
7031;SDS011;3557;48.880;8.328;2022-09-23T11:34:55;3.80;;;2.65;;
7031;SDS011;3557;48.880;8.328;2022-09-23T11:37:35;6.85;;;2.95;;
7031;SDS011;3557;48.880;8.328;2022-09-23T11:40:11;3.28;;;2.60;;
7031;SDS011;3557;48.880;8.328;2022-09-23T11:42:46;5.82;;;2.97;;
7031;SDS011;3557;48.880;8.328;2022-09-23T11:45:20;3.67;;;2.50;;
7031;SDS011;3557;48.880;8.328;2022-09-23T11:47:52;3.70;;;2.75;;
7031;SDS011;3557;48.880;8.328;2022-09-23T11:50:24;4.20;;;3.20;;
7031;SDS011;3557;48.880;8.328;2022-09-23T11:52:59;3.58;;;2.67;;
7031;SDS011;3557;48.880;8.328;2022-09-23T11:55:33;4.70;;;2.70;;
7031;SDS011;3557;48.880;8.328;2022-09-23T11:58:09;3.20;;;2.67;;
7031;SDS011;3557;48.880;8.328;2022-09-23T12:00:43;4.20;;;3.00;;
7031;SDS011;3557;48.880;8.328;2022-09-23T12:03:18;8.63;;;3.22;;
7031;SDS011;3557;48.880;8.328;2022-09-23T12:05:51;3.53;;;2.75;;
7031;SDS011;3557;48.880;8.328;2022-09-23T12:08:27;3.42;;;2.33;;
7031;SDS011;3557;48.880;8.328;2022-09-23T12:11:00;3.17;;;2.40;;
7031;SDS011;3557;48.880;8.328;2022-09-23T12:13:35;3.63;;;2.70;;
7031;SDS011;3557;48.880;8.328;2022-09-23T12:16:22;2.88;;;2.45;;
7031;SDS011;3557;48.880;8.328;2022-09-23T12:19:02;3.45;;;2.58;;
7031;SDS011;3557;48.880;8.328;2022-09-23T12:22:08;3.53;;;2.40;;
7031;SDS011;3557;48.880;8.328;2022-09-23T12:24:55;4.63;;;2.83;;
7031;SDS011;3557;48.880;8.328;2022-09-23T12:27:29;3.05;;;2.55;;
7031;SDS011;3557;48.880;8.328;2022-09-23T12:30:02;3.85;;;2.80;;
7031;SDS011;3557;48.880;8.328;2022-09-23T12:32:37;4.90;;;2.55;;
7031;SDS011;3557;48.880;8.328;2022-09-23T12:35:05;3.25;;;2.42;;
7031;SDS011;3557;48.880;8.328;2022-09-23T12:37:46;4.22;;;2.45;;
7031;SDS011;3557;48.880;8.328;2022-09-23T12:40:16;4.00;;;2.25;;
7031;SDS011;3557;48.880;8.328;2022-09-23T12:42:55;4.20;;;2.40;;
7031;SDS011;3557;48.880;8.328;2022-09-23T12:45:32;2.80;;;2.30;;
7031;SDS011;3557;48.880;8.328;2022-09-23T12:48:03;2.65;;;2.22;;
7031;SDS011;3557;48.880;8.328;2022-09-23T12:50:53;4.47;;;2.25;;
7031;SDS011;3557;48.880;8.328;2022-09-23T12:56:26;4.20;;;2.45;;
7031;SDS011;3557;48.880;8.328;2022-09-23T12:59:28;3.53;;;2.30;;
7031;SDS011;3557;48.880;8.328;2022-09-23T13:02:09;3.50;;;2.28;;
7031;SDS011;3557;48.880;8.328;2022-09-23T13:04:53;2.35;;;2.15;;
7031;SDS011;3557;48.880;8.328;2022-09-23T13:07:43;5.90;;;2.35;;
7031;SDS011;3557;48.880;8.328;2022-09-23T13:10:14;3.72;;;2.33;;
7031;SDS011;3557;48.880;8.328;2022-09-23T13:12:49;4.13;;;2.30;;
7031;SDS011;3557;48.880;8.328;2022-09-23T13:15:22;5.47;;;2.20;;
7031;SDS011;3557;48.880;8.328;2022-09-23T13:20:50;3.42;;;2.30;;
7031;SDS011;3557;48.880;8.328;2022-09-23T13:23:19;5.30;;;2.40;;
7031;SDS011;3557;48.880;8.328;2022-09-23T13:25:48;5.20;;;2.20;;
7031;SDS011;3557;48.880;8.328;2022-09-23T13:28:26;4.07;;;2.50;;
7031;SDS011;3557;48.880;8.328;2022-09-23T13:30:58;3.25;;;2.20;;
7031;SDS011;3557;48.880;8.328;2022-09-23T13:33:32;3.35;;;1.92;;
7031;SDS011;3557;48.880;8.328;2022-09-23T13:36:09;3.45;;;1.88;;
7031;SDS011;3557;48.880;8.328;2022-09-23T13:38:39;4.13;;;2.00;;
7031;SDS011;3557;48.880;8.328;2022-09-23T13:41:08;8.30;;;3.33;;
7031;SDS011;3557;48.880;8.328;2022-09-23T13:43:42;2.42;;;2.00;;
7031;SDS011;3557;48.880;8.328;2022-09-23T13:46:11;3.83;;;1.83;;
7031;SDS011;3557;48.880;8.328;2022-09-23T13:48:42;3.67;;;1.80;;
7031;SDS011;3557;48.880;8.328;2022-09-23T13:51:14;3.80;;;2.10;;
7031;SDS011;3557;48.880;8.328;2022-09-23T13:53:53;4.45;;;2.22;;
7031;SDS011;3557;48.880;8.328;2022-09-23T13:56:22;2.35;;;1.90;;
7031;SDS011;3557;48.880;8.328;2022-09-23T13:58:52;2.83;;;2.20;;
7031;SDS011;3557;48.880;8.328;2022-09-23T14:01:21;5.18;;;2.20;;
7031;SDS011;3557;48.880;8.328;2022-09-23T14:03:55;3.40;;;1.90;;
7031;SDS011;3557;48.880;8.328;2022-09-23T14:06:23;6.32;;;2.22;;
7031;SDS011;3557;48.880;8.328;2022-09-23T14:08:51;3.00;;;2.00;;
7031;SDS011;3557;48.880;8.328;2022-09-23T14:11:20;2.88;;;2.15;;
7031;SDS011;3557;48.880;8.328;2022-09-23T14:13:54;5.45;;;2.40;;
7031;SDS011;3557;48.880;8.328;2022-09-23T14:16:23;4.88;;;2.10;;
7031;SDS011;3557;48.880;8.328;2022-09-23T14:18:54;2.40;;;1.95;;
7031;SDS011;3557;48.880;8.328;2022-09-23T14:21:27;4.35;;;2.20;;
7031;SDS011;3557;48.880;8.328;2022-09-23T14:24:03;5.30;;;2.10;;
7031;SDS011;3557;48.880;8.328;2022-09-23T14:26:39;2.58;;;2.05;;
7031;SDS011;3557;48.880;8.328;2022-09-23T14:29:12;2.50;;;1.83;;
7031;SDS011;3557;48.880;8.328;2022-09-23T14:31:43;6.03;;;2.25;;
7031;SDS011;3557;48.880;8.328;2022-09-23T14:37:18;2.28;;;2.08;;
7031;SDS011;3557;48.880;8.328;2022-09-23T14:40:09;2.42;;;1.83;;
7031;SDS011;3557;48.880;8.328;2022-09-23T14:42:41;2.60;;;2.15;;
7031;SDS011;3557;48.880;8.328;2022-09-23T14:45:13;8.02;;;2.90;;
7031;SDS011;3557;48.880;8.328;2022-09-23T14:47:44;2.80;;;2.10;;
7031;SDS011;3557;48.880;8.328;2022-09-23T14:50:15;2.55;;;2.15;;
7031;SDS011;3557;48.880;8.328;2022-09-23T14:56:07;3.53;;;2.10;;
7031;SDS011;3557;48.880;8.328;2022-09-23T14:58:45;2.45;;;2.03;;
7031;SDS011;3557;48.880;8.328;2022-09-23T15:01:26;3.45;;;2.22;;
7031;SDS011;3557;48.880;8.328;2022-09-23T15:04:08;2.55;;;1.90;;
7031;SDS011;3557;48.880;8.328;2022-09-23T15:06:39;4.18;;;2.30;;
7031;SDS011;3557;48.880;8.328;2022-09-23T15:09:16;2.78;;;1.90;;
7031;SDS011;3557;48.880;8.328;2022-09-23T15:11:49;4.65;;;2.15;;
7031;SDS011;3557;48.880;8.328;2022-09-23T15:14:18;3.53;;;1.92;;
7031;SDS011;3557;48.880;8.328;2022-09-23T15:16:46;5.22;;;2.00;;
7031;SDS011;3557;48.880;8.328;2022-09-23T15:19:15;3.10;;;2.08;;
7031;SDS011;3557;48.880;8.328;2022-09-23T15:21:45;3.05;;;2.10;;
7031;SDS011;3557;48.880;8.328;2022-09-23T15:27:21;6.32;;;1.80;;
7031;SDS011;3557;48.880;8.328;2022-09-23T15:29:59;2.55;;;1.98;;
7031;SDS011;3557;48.880;8.328;2022-09-23T15:32:41;3.38;;;1.95;;
7031;SDS011;3557;48.880;8.328;2022-09-23T15:35:10;3.58;;;2.25;;
7031;SDS011;3557;48.880;8.328;2022-09-23T15:37:39;5.35;;;2.40;;
7031;SDS011;3557;48.880;8.328;2022-09-23T15:40:09;5.55;;;3.00;;
7031;SDS011;3557;48.880;8.328;2022-09-23T15:42:46;6.53;;;3.60;;
7031;SDS011;3557;48.880;8.328;2022-09-23T15:45:15;6.38;;;2.90;;
7031;SDS011;3557;48.880;8.328;2022-09-23T15:47:47;3.67;;;2.67;;
7031;SDS011;3557;48.880;8.328;2022-09-23T15:50:15;5.07;;;2.90;;
7031;SDS011;3557;48.880;8.328;2022-09-23T15:52:42;6.80;;;2.78;;
7031;SDS011;3557;48.880;8.328;2022-09-23T15:55:13;3.72;;;2.15;;
7031;SDS011;3557;48.880;8.328;2022-09-23T15:57:42;4.25;;;2.63;;
7031;SDS011;3557;48.880;8.328;2022-09-23T16:00:09;4.53;;;2.25;;
7031;SDS011;3557;48.880;8.328;2022-09-23T16:02:38;3.80;;;2.17;;
7031;SDS011;3557;48.880;8.328;2022-09-23T16:05:12;4.65;;;2.60;;
7031;SDS011;3557;48.880;8.328;2022-09-23T16:07:47;3.80;;;2.33;;
7031;SDS011;3557;48.880;8.328;2022-09-23T16:10:17;3.50;;;2.40;;